Terminal Aerodrome Forecast
Issued by NWS

Home | Current Version | Previous Version | Text Only | Print | Product List | Glossary On
Versions: 1 2 3 4 5 6 7 8 9 10 11 12 13 14 15 16
117
FTUS43 KJKL 282330
TAFSME
TAF
KSME 282330Z 2900/2924 VRB05KT P6SM BKN035
      TEMPO 2901/2904 BKN025
     FM290400 00000KT P6SM BKN015
     FM290900 VRB03KT 3SM BR BKN008
     FM291500 08005KT P6SM BKN020
     FM291800 08005KT P6SM SCT080=

USA.gov is the U.S. government's official web portal to all federal, state and local government web resources and services.